sensor_id;sensor_type;location;lat;lon;timestamp;temperature;humidity
41344;DHT22;27089;50.022;7.604;2023-03-31T00:01:27;10.00;99.90
41344;DHT22;27089;50.022;7.604;2023-03-31T00:03:54;10.00;99.90
41344;DHT22;27089;50.022;7.604;2023-03-31T00:06:28;10.00;99.90
41344;DHT22;27089;50.022;7.604;2023-03-31T00:08:55;9.90;99.90
41344;DHT22;27089;50.022;7.604;2023-03-31T00:11:27;9.90;99.90
41344;DHT22;27089;50.022;7.604;2023-03-31T00:13:55;9.90;99.90
41344;DHT22;27089;50.022;7.604;2023-03-31T00:16:24;9.90;99.90
41344;DHT22;27089;50.022;7.604;2023-03-31T00:18:51;9.90;99.90
41344;DHT22;27089;50.022;7.604;2023-03-31T00:21:20;9.90;99.90
41344;DHT22;27089;50.022;7.604;2023-03-31T00:23:55;9.90;99.90
41344;DHT22;27089;50.022;7.604;2023-03-31T00:26:23;9.90;99.90
41344;DHT22;27089;50.022;7.604;2023-03-31T00:28:51;9.90;99.90
41344;DHT22;27089;50.022;7.604;2023-03-31T00:31:18;9.90;99.90
41344;DHT22;27089;50.022;7.604;2023-03-31T00:33:47;9.90;99.90
41344;DHT22;27089;50.022;7.604;2023-03-31T00:36:14;9.90;99.90
41344;DHT22;27089;50.022;7.604;2023-03-31T00:38:45;9.80;99.90
41344;DHT22;27089;50.022;7.604;2023-03-31T00:41:13;9.80;99.90
41344;DHT22;27089;50.022;7.604;2023-03-31T00:43:40;9.80;99.90
41344;DHT22;27089;50.022;7.604;2023-03-31T00:46:13;9.90;99.90
41344;DHT22;27089;50.022;7.604;2023-03-31T00:48:48;9.90;99.90
41344;DHT22;27089;50.022;7.604;2023-03-31T00:51:17;9.90;99.90
41344;DHT22;27089;50.022;7.604;2023-03-31T00:53:46;9.90;99.90
41344;DHT22;27089;50.022;7.604;2023-03-31T00:56:20;9.90;99.90
41344;DHT22;27089;50.022;7.604;2023-03-31T00:58:47;9.90;99.90
41344;DHT22;27089;50.022;7.604;2023-03-31T01:01:17;9.90;99.90
41344;DHT22;27089;50.022;7.604;2023-03-31T01:03:45;9.90;99.90
41344;DHT22;27089;50.022;7.604;2023-03-31T01:06:15;9.90;99.90
41344;DHT22;27089;50.022;7.604;2023-03-31T01:08:44;9.80;99.90
41344;DHT22;27089;50.022;7.604;2023-03-31T01:11:15;9.80;99.90
41344;DHT22;27089;50.022;7.604;2023-03-31T01:13:43;9.80;99.90
41344;DHT22;27089;50.022;7.604;2023-03-31T01:16:15;9.70;99.90
41344;DHT22;27089;50.022;7.604;2023-03-31T01:18:42;9.70;99.90
41344;DHT22;27089;50.022;7.604;2023-03-31T01:21:49;9.70;99.90
41344;DHT22;27089;50.022;7.604;2023-03-31T01:30:47;9.60;99.90
41344;DHT22;27089;50.022;7.604;2023-03-31T01:37:04;9.60;99.90
41344;DHT22;27089;50.022;7.604;2023-03-31T01:40:14;9.60;99.90
41344;DHT22;27089;50.022;7.604;2023-03-31T01:42:51;9.60;99.90
41344;DHT22;27089;50.022;7.604;2023-03-31T01:45:27;9.60;99.90
41344;DHT22;27089;50.022;7.604;2023-03-31T01:47:57;9.60;99.90
41344;DHT22;27089;50.022;7.604;2023-03-31T01:50:28;9.60;99.90
41344;DHT22;27089;50.022;7.604;2023-03-31T01:53:02;9.60;99.90
41344;DHT22;27089;50.022;7.604;2023-03-31T01:55:34;9.70;99.90
41344;DHT22;27089;50.022;7.604;2023-03-31T01:58:06;9.70;99.90
41344;DHT22;27089;50.022;7.604;2023-03-31T02:00:39;9.70;99.90
41344;DHT22;27089;50.022;7.604;2023-03-31T02:03:10;9.70;99.90
41344;DHT22;27089;50.022;7.604;2023-03-31T02:05:44;9.80;99.90
41344;DHT22;27089;50.022;7.604;2023-03-31T02:08:14;9.80;99.90
41344;DHT22;27089;50.022;7.604;2023-03-31T02:10:44;9.80;99.90
41344;DHT22;27089;50.022;7.604;2023-03-31T02:13:13;9.80;99.90
41344;DHT22;27089;50.022;7.604;2023-03-31T02:15:44;9.80;99.90
41344;DHT22;27089;50.022;7.604;2023-03-31T02:18:16;9.80;99.90
41344;DHT22;27089;50.022;7.604;2023-03-31T02:20:47;9.80;99.90
41344;DHT22;27089;50.022;7.604;2023-03-31T02:23:19;9.80;99.90
41344;DHT22;27089;50.022;7.604;2023-03-31T02:25:50;9.80;99.90
41344;DHT22;27089;50.022;7.604;2023-03-31T02:28:21;9.80;99.90
41344;DHT22;27089;50.022;7.604;2023-03-31T02:30:55;9.80;99.90
41344;DHT22;27089;50.022;7.604;2023-03-31T02:33:25;9.80;99.90
41344;DHT22;27089;50.022;7.604;2023-03-31T02:35:53;9.70;99.90
41344;DHT22;27089;50.022;7.604;2023-03-31T02:38:20;9.70;99.90
41344;DHT22;27089;50.022;7.604;2023-03-31T02:40:48;9.70;99.90
41344;DHT22;27089;50.022;7.604;2023-03-31T02:43:15;9.70;99.90
41344;DHT22;27089;50.022;7.604;2023-03-31T02:45:44;9.70;99.90
41344;DHT22;27089;50.022;7.604;2023-03-31T02:48:15;9.60;99.90
41344;DHT22;27089;50.022;7.604;2023-03-31T02:51:01;9.60;99.90
41344;DHT22;27089;50.022;7.604;2023-03-31T02:53:40;9.60;99.90
41344;DHT22;27089;50.022;7.604;2023-03-31T02:56:26;9.50;99.90
41344;DHT22;27089;50.022;7.604;2023-03-31T02:59:18;9.50;99.90
41344;DHT22;27089;50.022;7.604;2023-03-31T03:02:02;9.50;99.90
41344;DHT22;27089;50.022;7.604;2023-03-31T03:04:46;9.40;99.90
41344;DHT22;27089;50.022;7.604;2023-03-31T03:07:20;9.40;99.90
41344;DHT22;27089;50.022;7.604;2023-03-31T03:09:58;9.40;99.90
41344;DHT22;27089;50.022;7.604;2023-03-31T03:12:32;9.30;99.90
41344;DHT22;27089;50.022;7.604;2023-03-31T03:15:06;9.30;99.90
41344;DHT22;27089;50.022;7.604;2023-03-31T03:17:38;9.30;99.90
41344;DHT22;27089;50.022;7.604;2023-03-31T03:20:07;9.30;99.90
41344;DHT22;27089;50.022;7.604;2023-03-31T03:22:35;9.30;99.90
41344;DHT22;27089;50.022;7.604;2023-03-31T03:25:03;9.20;99.90
41344;DHT22;27089;50.022;7.604;2023-03-31T03:27:32;9.20;99.90
41344;DHT22;27089;50.022;7.604;2023-03-31T03:30:00;9.20;99.90
41344;DHT22;27089;50.022;7.604;2023-03-31T03:32:29;9.30;99.90
41344;DHT22;27089;50.022;7.604;2023-03-31T03:34:58;9.30;99.90
41344;DHT22;27089;50.022;7.604;2023-03-31T03:37:25;9.30;99.90
41344;DHT22;27089;50.022;7.604;2023-03-31T03:39:52;9.20;99.90
41344;DHT22;27089;50.022;7.604;2023-03-31T03:42:19;9.20;99.90
41344;DHT22;27089;50.022;7.604;2023-03-31T03:44:47;9.20;99.90
41344;DHT22;27089;50.022;7.604;2023-03-31T03:47:14;9.10;99.90
41344;DHT22;27089;50.022;7.604;2023-03-31T03:49:41;9.10;99.90
41344;DHT22;27089;50.022;7.604;2023-03-31T03:52:08;9.10;99.90
41344;DHT22;27089;50.022;7.604;2023-03-31T03:54:35;9.10;99.90
41344;DHT22;27089;50.022;7.604;2023-03-31T03:57:02;9.00;99.90
41344;DHT22;27089;50.022;7.604;2023-03-31T03:59:29;9.10;99.90
41344;DHT22;27089;50.022;7.604;2023-03-31T04:01:57;9.10;99.90
41344;DHT22;27089;50.022;7.604;2023-03-31T04:04:24;9.10;99.90
41344;DHT22;27089;50.022;7.604;2023-03-31T04:06:51;9.20;99.90
41344;DHT22;27089;50.022;7.604;2023-03-31T04:09:18;9.20;99.90
41344;DHT22;27089;50.022;7.604;2023-03-31T04:11:45;9.20;99.90
41344;DHT22;27089;50.022;7.604;2023-03-31T04:14:12;9.20;99.90
41344;DHT22;27089;50.022;7.604;2023-03-31T04:16:39;9.20;99.90
41344;DHT22;27089;50.022;7.604;2023-03-31T04:19:08;9.30;99.90
41344;DHT22;27089;50.022;7.604;2023-03-31T04:21:37;9.30;99.90
41344;DHT22;27089;50.022;7.604;2023-03-31T04:24:10;9.30;99.90
41344;DHT22;27089;50.022;7.604;2023-03-31T04:26:40;9.40;99.90
41344;DHT22;27089;50.022;7.604;2023-03-31T04:29:08;9.30;99.90
41344;DHT22;27089;50.022;7.604;2023-03-31T04:31:37;9.40;99.90
41344;DHT22;27089;50.022;7.604;2023-03-31T04:34:09;9.40;99.90
41344;DHT22;27089;50.022;7.604;2023-03-31T04:36:39;9.40;99.90
41344;DHT22;27089;50.022;7.604;2023-03-31T04:39:07;9.30;99.90
41344;DHT22;27089;50.022;7.604;2023-03-31T04:41:36;9.30;99.90
41344;DHT22;27089;50.022;7.604;2023-03-31T04:44:03;9.30;99.90
41344;DHT22;27089;50.022;7.604;2023-03-31T04:46:31;9.30;99.90
41344;DHT22;27089;50.022;7.604;2023-03-31T04:48:58;9.30;99.90
41344;DHT22;27089;50.022;7.604;2023-03-31T04:51:27;9.30;99.90
41344;DHT22;27089;50.022;7.604;2023-03-31T04:53:55;9.40;99.90
41344;DHT22;27089;50.022;7.604;2023-03-31T04:56:22;9.40;99.90
41344;DHT22;27089;50.022;7.604;2023-03-31T04:58:49;9.40;99.90
41344;DHT22;27089;50.022;7.604;2023-03-31T05:01:16;9.40;99.90
41344;DHT22;27089;50.022;7.604;2023-03-31T05:03:44;9.40;99.90
41344;DHT22;27089;50.022;7.604;2023-03-31T05:06:12;9.30;99.90
41344;DHT22;27089;50.022;7.604;2023-03-31T05:08:42;9.30;99.90
41344;DHT22;27089;50.022;7.604;2023-03-31T05:11:09;9.30;99.90
41344;DHT22;27089;50.022;7.604;2023-03-31T05:13:36;9.30;99.90
41344;DHT22;27089;50.022;7.604;2023-03-31T05:16:07;9.30;99.90
41344;DHT22;27089;50.022;7.604;2023-03-31T05:18:34;9.30;99.90
41344;DHT22;27089;50.022;7.604;2023-03-31T05:21:09;9.30;99.90
41344;DHT22;27089;50.022;7.604;2023-03-31T05:23:37;9.30;99.90
41344;DHT22;27089;50.022;7.604;2023-03-31T05:26:05;9.30;99.90
41344;DHT22;27089;50.022;7.604;2023-03-31T05:28:33;9.30;99.90
41344;DHT22;27089;50.022;7.604;2023-03-31T05:31:01;9.30;99.90
41344;DHT22;27089;50.022;7.604;2023-03-31T05:33:28;9.30;99.90
41344;DHT22;27089;50.022;7.604;2023-03-31T05:35:55;9.30;99.90
41344;DHT22;27089;50.022;7.604;2023-03-31T05:38:25;9.30;99.90
41344;DHT22;27089;50.022;7.604;2023-03-31T05:40:54;9.30;99.90
41344;DHT22;27089;50.022;7.604;2023-03-31T05:43:22;9.30;99.90
41344;DHT22;27089;50.022;7.604;2023-03-31T05:45:49;9.30;99.90
41344;DHT22;27089;50.022;7.604;2023-03-31T05:48:16;9.30;99.90
41344;DHT22;27089;50.022;7.604;2023-03-31T05:50:43;9.30;99.90
41344;DHT22;27089;50.022;7.604;2023-03-31T05:53:11;9.30;99.90
41344;DHT22;27089;50.022;7.604;2023-03-31T05:55:38;9.30;99.90
41344;DHT22;27089;50.022;7.604;2023-03-31T05:58:05;9.30;99.90
41344;DHT22;27089;50.022;7.604;2023-03-31T06:00:35;9.30;99.90
41344;DHT22;27089;50.022;7.604;2023-03-31T06:03:02;9.30;99.90
41344;DHT22;27089;50.022;7.604;2023-03-31T06:05:32;9.30;99.90
41344;DHT22;27089;50.022;7.604;2023-03-31T06:07:59;9.30;99.90
41344;DHT22;27089;50.022;7.604;2023-03-31T06:10:26;9.30;99.90
41344;DHT22;27089;50.022;7.604;2023-03-31T06:12:53;9.30;99.90
41344;DHT22;27089;50.022;7.604;2023-03-31T06:15:20;9.30;99.90
41344;DHT22;27089;50.022;7.604;2023-03-31T06:17:48;9.30;99.90
41344;DHT22;27089;50.022;7.604;2023-03-31T06:20:15;9.30;99.90
41344;DHT22;27089;50.022;7.604;2023-03-31T06:22:42;9.20;99.90
41344;DHT22;27089;50.022;7.604;2023-03-31T06:25:09;9.20;99.90
41344;DHT22;27089;50.022;7.604;2023-03-31T06:27:36;9.20;99.90
41344;DHT22;27089;50.022;7.604;2023-03-31T06:30:04;9.30;99.90
41344;DHT22;27089;50.022;7.604;2023-03-31T06:32:31;9.20;99.90
41344;DHT22;27089;50.022;7.604;2023-03-31T06:34:59;9.30;99.90
41344;DHT22;27089;50.022;7.604;2023-03-31T06:37:26;9.20;99.90
41344;DHT22;27089;50.022;7.604;2023-03-31T06:39:53;9.30;99.90
41344;DHT22;27089;50.022;7.604;2023-03-31T06:42:20;9.30;99.90
41344;DHT22;27089;50.022;7.604;2023-03-31T06:44:47;9.30;99.90
41344;DHT22;27089;50.022;7.604;2023-03-31T06:47:14;9.30;99.90
41344;DHT22;27089;50.022;7.604;2023-03-31T06:49:41;9.30;99.90
41344;DHT22;27089;50.022;7.604;2023-03-31T06:52:09;9.30;99.90
41344;DHT22;27089;50.022;7.604;2023-03-31T06:54:36;9.40;99.90
41344;DHT22;27089;50.022;7.604;2023-03-31T06:57:03;9.40;99.90
41344;DHT22;27089;50.022;7.604;2023-03-31T06:59:30;9.50;99.90
41344;DHT22;27089;50.022;7.604;2023-03-31T07:01:57;9.60;99.90
41344;DHT22;27089;50.022;7.604;2023-03-31T07:04:24;9.70;99.90
41344;DHT22;27089;50.022;7.604;2023-03-31T07:06:51;9.80;99.90
41344;DHT22;27089;50.022;7.604;2023-03-31T07:09:19;9.80;99.90
41344;DHT22;27089;50.022;7.604;2023-03-31T07:11:48;9.80;99.90
41344;DHT22;27089;50.022;7.604;2023-03-31T07:14:15;9.80;99.90
41344;DHT22;27089;50.022;7.604;2023-03-31T07:16:42;9.90;99.90
41344;DHT22;27089;50.022;7.604;2023-03-31T07:19:09;10.20;99.90
41344;DHT22;27089;50.022;7.604;2023-03-31T07:21:36;10.50;99.90
41344;DHT22;27089;50.022;7.604;2023-03-31T07:24:03;10.60;99.90
41344;DHT22;27089;50.022;7.604;2023-03-31T07:26:32;12.20;99.90
41344;DHT22;27089;50.022;7.604;2023-03-31T07:28:59;16.60;99.90
41344;DHT22;27089;50.022;7.604;2023-03-31T07:31:26;20.00;99.90
41344;DHT22;27089;50.022;7.604;2023-03-31T07:33:53;19.00;99.90
41344;DHT22;27089;50.022;7.604;2023-03-31T07:36:20;17.40;99.90
41344;DHT22;27089;50.022;7.604;2023-03-31T07:38:47;16.50;99.90
41344;DHT22;27089;50.022;7.604;2023-03-31T07:41:16;15.60;99.90
41344;DHT22;27089;50.022;7.604;2023-03-31T07:43:46;15.00;99.90
41344;DHT22;27089;50.022;7.604;2023-03-31T07:46:14;14.80;99.90
41344;DHT22;27089;50.022;7.604;2023-03-31T07:48:42;16.40;99.90
41344;DHT22;27089;50.022;7.604;2023-03-31T07:51:11;18.10;99.90
41344;DHT22;27089;50.022;7.604;2023-03-31T07:53:38;17.10;99.90
41344;DHT22;27089;50.022;7.604;2023-03-31T07:56:05;15.90;99.90
41344;DHT22;27089;50.022;7.604;2023-03-31T07:58:32;14.80;99.90
41344;DHT22;27089;50.022;7.604;2023-03-31T08:01:00;13.90;99.90
41344;DHT22;27089;50.022;7.604;2023-03-31T08:03:28;13.30;99.90
41344;DHT22;27089;50.022;7.604;2023-03-31T08:05:56;12.80;99.90
41344;DHT22;27089;50.022;7.604;2023-03-31T08:08:23;12.40;99.90
41344;DHT22;27089;50.022;7.604;2023-03-31T08:10:51;12.20;99.90
41344;DHT22;27089;50.022;7.604;2023-03-31T08:13:18;12.10;99.90
41344;DHT22;27089;50.022;7.604;2023-03-31T08:15:45;12.10;99.90
41344;DHT22;27089;50.022;7.604;2023-03-31T08:18:13;12.00;99.90
41344;DHT22;27089;50.022;7.604;2023-03-31T08:20:40;11.90;99.90
41344;DHT22;27089;50.022;7.604;2023-03-31T08:23:07;11.90;99.90
41344;DHT22;27089;50.022;7.604;2023-03-31T08:25:36;12.00;99.90
41344;DHT22;27089;50.022;7.604;2023-03-31T08:28:03;12.00;99.90
41344;DHT22;27089;50.022;7.604;2023-03-31T08:30:31;12.40;99.90
41344;DHT22;27089;50.022;7.604;2023-03-31T08:32:59;14.20;99.90
41344;DHT22;27089;50.022;7.604;2023-03-31T08:35:27;14.70;99.90
41344;DHT22;27089;50.022;7.604;2023-03-31T08:37:54;15.90;99.90
41344;DHT22;27089;50.022;7.604;2023-03-31T08:40:24;18.00;99.90
41344;DHT22;27089;50.022;7.604;2023-03-31T08:42:54;19.40;99.90
41344;DHT22;27089;50.022;7.604;2023-03-31T08:45:24;20.20;99.90
41344;DHT22;27089;50.022;7.604;2023-03-31T08:47:56;20.40;99.90
41344;DHT22;27089;50.022;7.604;2023-03-31T08:50:28;20.50;99.90
41344;DHT22;27089;50.022;7.604;2023-03-31T08:53:03;19.80;99.90
41344;DHT22;27089;50.022;7.604;2023-03-31T08:55:36;18.60;99.90
41344;DHT22;27089;50.022;7.604;2023-03-31T08:58:08;17.60;99.90
41344;DHT22;27089;50.022;7.604;2023-03-31T09:00:42;16.70;99.90
41344;DHT22;27089;50.022;7.604;2023-03-31T09:03:19;16.00;99.90
41344;DHT22;27089;50.022;7.604;2023-03-31T09:05:56;15.50;99.90
41344;DHT22;27089;50.022;7.604;2023-03-31T09:08:32;15.00;99.90
41344;DHT22;27089;50.022;7.604;2023-03-31T09:11:14;14.70;99.90
41344;DHT22;27089;50.022;7.604;2023-03-31T09:14:03;14.60;99.90
41344;DHT22;27089;50.022;7.604;2023-03-31T09:16:36;14.60;99.90
41344;DHT22;27089;50.022;7.604;2023-03-31T09:19:13;14.50;99.90
41344;DHT22;27089;50.022;7.604;2023-03-31T09:21:44;14.40;99.90
41344;DHT22;27089;50.022;7.604;2023-03-31T09:24:14;14.00;99.90
41344;DHT22;27089;50.022;7.604;2023-03-31T09:26:46;13.60;99.90
41344;DHT22;27089;50.022;7.604;2023-03-31T09:29:16;13.30;99.90
41344;DHT22;27089;50.022;7.604;2023-03-31T09:31:46;12.90;99.90
41344;DHT22;27089;50.022;7.604;2023-03-31T09:34:15;12.80;99.90
41344;DHT22;27089;50.022;7.604;2023-03-31T09:36:44;12.90;99.90
41344;DHT22;27089;50.022;7.604;2023-03-31T09:39:13;13.10;99.90
41344;DHT22;27089;50.022;7.604;2023-03-31T09:41:43;13.10;99.90
41344;DHT22;27089;50.022;7.604;2023-03-31T09:44:24;12.90;99.90
41344;DHT22;27089;50.022;7.604;2023-03-31T09:46:53;12.70;99.90
41344;DHT22;27089;50.022;7.604;2023-03-31T09:49:22;12.40;99.90
41344;DHT22;27089;50.022;7.604;2023-03-31T09:52:00;12.20;99.90
41344;DHT22;27089;50.022;7.604;2023-03-31T09:54:34;12.10;99.90
41344;DHT22;27089;50.022;7.604;2023-03-31T09:57:04;12.10;99.90
41344;DHT22;27089;50.022;7.604;2023-03-31T09:59:38;12.30;99.90
41344;DHT22;27089;50.022;7.604;2023-03-31T10:02:24;12.80;99.90
41344;DHT22;27089;50.022;7.604;2023-03-31T10:04:53;13.70;99.90
41344;DHT22;27089;50.022;7.604;2023-03-31T10:07:22;14.30;99.90
41344;DHT22;27089;50.022;7.604;2023-03-31T10:09:51;14.80;99.90
41344;DHT22;27089;50.022;7.604;2023-03-31T10:12:19;15.20;99.90
41344;DHT22;27089;50.022;7.604;2023-03-31T10:14:50;15.60;99.90
41344;DHT22;27089;50.022;7.604;2023-03-31T10:17:18;15.90;99.90
41344;DHT22;27089;50.022;7.604;2023-03-31T10:19:47;16.30;99.90
41344;DHT22;27089;50.022;7.604;2023-03-31T10:22:17;16.70;99.90
41344;DHT22;27089;50.022;7.604;2023-03-31T10:24:53;16.60;99.90
41344;DHT22;27089;50.022;7.604;2023-03-31T10:27:22;16.30;99.90
41344;DHT22;27089;50.022;7.604;2023-03-31T10:29:51;16.00;99.90
41344;DHT22;27089;50.022;7.604;2023-03-31T10:32:22;15.80;99.90
41344;DHT22;27089;50.022;7.604;2023-03-31T10:34:50;15.70;99.90
41344;DHT22;27089;50.022;7.604;2023-03-31T10:37:20;15.60;99.90
41344;DHT22;27089;50.022;7.604;2023-03-31T10:39:57;15.40;99.90
41344;DHT22;27089;50.022;7.604;2023-03-31T10:42:24;15.60;99.90
41344;DHT22;27089;50.022;7.604;2023-03-31T10:45:17;15.70;99.90
41344;DHT22;27089;50.022;7.604;2023-03-31T10:47:52;15.50;99.90
41344;DHT22;27089;50.022;7.604;2023-03-31T10:50:26;14.90;99.90
41344;DHT22;27089;50.022;7.604;2023-03-31T10:53:01;14.30;99.90
41344;DHT22;27089;50.022;7.604;2023-03-31T10:55:34;14.10;99.90
41344;DHT22;27089;50.022;7.604;2023-03-31T10:58:08;14.10;99.90
41344;DHT22;27089;50.022;7.604;2023-03-31T11:00:49;14.40;99.90
41344;DHT22;27089;50.022;7.604;2023-03-31T11:03:41;14.80;99.90
41344;DHT22;27089;50.022;7.604;2023-03-31T11:06:16;15.10;99.90
41344;DHT22;27089;50.022;7.604;2023-03-31T11:08:52;15.30;99.90
41344;DHT22;27089;50.022;7.604;2023-03-31T11:11:41;15.60;99.90
41344;DHT22;27089;50.022;7.604;2023-03-31T11:14:15;15.70;99.90
41344;DHT22;27089;50.022;7.604;2023-03-31T11:16:49;15.60;99.90
41344;DHT22;27089;50.022;7.604;2023-03-31T11:19:27;15.60;99.90
41344;DHT22;27089;50.022;7.604;2023-03-31T11:22:06;15.50;99.90
41344;DHT22;27089;50.022;7.604;2023-03-31T11:25:08;15.60;99.90
41344;DHT22;27089;50.022;7.604;2023-03-31T11:30:47;15.30;99.90
41344;DHT22;27089;50.022;7.604;2023-03-31T11:33:29;14.90;99.90
41344;DHT22;27089;50.022;7.604;2023-03-31T11:36:09;14.80;99.90
41344;DHT22;27089;50.022;7.604;2023-03-31T11:38:46;14.80;99.90
41344;DHT22;27089;50.022;7.604;2023-03-31T11:41:18;14.90;99.90
41344;DHT22;27089;50.022;7.604;2023-03-31T11:43:49;14.80;99.90
41344;DHT22;27089;50.022;7.604;2023-03-31T11:46:20;14.90;99.90
41344;DHT22;27089;50.022;7.604;2023-03-31T11:48:51;14.90;99.90
41344;DHT22;27089;50.022;7.604;2023-03-31T11:51:25;15.10;99.90
41344;DHT22;27089;50.022;7.604;2023-03-31T11:53:57;15.20;99.90
41344;DHT22;27089;50.022;7.604;2023-03-31T11:56:30;15.20;99.90
41344;DHT22;27089;50.022;7.604;2023-03-31T11:59:01;15.30;99.90
41344;DHT22;27089;50.022;7.604;2023-03-31T12:01:36;15.40;99.90
41344;DHT22;27089;50.022;7.604;2023-03-31T12:04:10;15.40;99.90
41344;DHT22;27089;50.022;7.604;2023-03-31T12:06:46;15.50;99.90
41344;DHT22;27089;50.022;7.604;2023-03-31T12:09:20;15.40;99.90
41344;DHT22;27089;50.022;7.604;2023-03-31T12:11:52;15.50;99.90
41344;DHT22;27089;50.022;7.604;2023-03-31T12:14:28;15.40;99.90
41344;DHT22;27089;50.022;7.604;2023-03-31T12:17:01;14.80;99.90
41344;DHT22;27089;50.022;7.604;2023-03-31T12:19:34;14.20;99.90
41344;DHT22;27089;50.022;7.604;2023-03-31T12:22:09;13.70;99.90
41344;DHT22;27089;50.022;7.604;2023-03-31T12:24:38;13.50;99.90
41344;DHT22;27089;50.022;7.604;2023-03-31T12:27:10;13.70;99.90
41344;DHT22;27089;50.022;7.604;2023-03-31T12:29:43;14.10;99.90
41344;DHT22;27089;50.022;7.604;2023-03-31T12:32:14;14.50;99.90
41344;DHT22;27089;50.022;7.604;2023-03-31T12:34:45;14.80;99.90
41344;DHT22;27089;50.022;7.604;2023-03-31T12:37:28;14.90;99.90
41344;DHT22;27089;50.022;7.604;2023-03-31T12:40:09;15.10;99.90
41344;DHT22;27089;50.022;7.604;2023-03-31T12:42:58;15.30;99.90
41344;DHT22;27089;50.022;7.604;2023-03-31T12:45:30;15.40;99.90
41344;DHT22;27089;50.022;7.604;2023-03-31T12:48:14;15.50;99.90
41344;DHT22;27089;50.022;7.604;2023-03-31T12:51:01;15.60;99.90
41344;DHT22;27089;50.022;7.604;2023-03-31T12:53:37;15.30;99.90
41344;DHT22;27089;50.022;7.604;2023-03-31T12:56:06;14.70;99.90
41344;DHT22;27089;50.022;7.604;2023-03-31T12:58:44;14.20;99.90
41344;DHT22;27089;50.022;7.604;2023-03-31T13:01:17;13.80;99.90
41344;DHT22;27089;50.022;7.604;2023-03-31T13:03:54;13.90;99.90
41344;DHT22;27089;50.022;7.604;2023-03-31T13:06:51;14.10;99.90
41344;DHT22;27089;50.022;7.604;2023-03-31T13:09:41;14.50;99.90
41344;DHT22;27089;50.022;7.604;2023-03-31T13:12:13;14.60;99.90
41344;DHT22;27089;50.022;7.604;2023-03-31T13:14:43;14.50;99.90
41344;DHT22;27089;50.022;7.604;2023-03-31T13:17:19;14.40;99.90
41344;DHT22;27089;50.022;7.604;2023-03-31T13:19:48;14.30;99.90
41344;DHT22;27089;50.022;7.604;2023-03-31T13:22:33;14.40;99.90
41344;DHT22;27089;50.022;7.604;2023-03-31T13:25:29;14.30;99.90
41344;DHT22;27089;50.022;7.604;2023-03-31T13:28:08;14.30;99.90
41344;DHT22;27089;50.022;7.604;2023-03-31T13:30:50;14.20;99.90
41344;DHT22;27089;50.022;7.604;2023-03-31T13:33:29;14.10;99.90
41344;DHT22;27089;50.022;7.604;2023-03-31T13:36:14;14.10;99.90
41344;DHT22;27089;50.022;7.604;2023-03-31T13:38:54;14.10;99.90
41344;DHT22;27089;50.022;7.604;2023-03-31T13:41:39;14.30;99.90
41344;DHT22;27089;50.022;7.604;2023-03-31T13:44:44;14.60;99.90
41344;DHT22;27089;50.022;7.604;2023-03-31T13:47:32;14.80;99.90
41344;DHT22;27089;50.022;7.604;2023-03-31T13:50:28;14.80;99.90
41344;DHT22;27089;50.022;7.604;2023-03-31T13:52:59;14.70;99.90
41344;DHT22;27089;50.022;7.604;2023-03-31T13:58:37;14.60;99.90
41344;DHT22;27089;50.022;7.604;2023-03-31T14:04:36;14.30;99.90
41344;DHT22;27089;50.022;7.604;2023-03-31T14:07:11;14.10;99.90
41344;DHT22;27089;50.022;7.604;2023-03-31T14:09:41;13.90;99.90
41344;DHT22;27089;50.022;7.604;2023-03-31T14:12:25;13.70;99.90
41344;DHT22;27089;50.022;7.604;2023-03-31T14:14:55;13.60;99.90
41344;DHT22;27089;50.022;7.604;2023-03-31T14:17:26;13.60;99.90
41344;DHT22;27089;50.022;7.604;2023-03-31T14:20:13;13.70;99.90
41344;DHT22;27089;50.022;7.604;2023-03-31T14:22:52;13.80;99.90
41344;DHT22;27089;50.022;7.604;2023-03-31T14:25:33;13.80;99.90
41344;DHT22;27089;50.022;7.604;2023-03-31T14:28:13;13.70;99.90
41344;DHT22;27089;50.022;7.604;2023-03-31T14:30:48;13.60;99.90
41344;DHT22;27089;50.022;7.604;2023-03-31T14:33:27;13.60;99.90
41344;DHT22;27089;50.022;7.604;2023-03-31T14:36:04;13.60;99.90
41344;DHT22;27089;50.022;7.604;2023-03-31T14:38:35;13.60;99.90
41344;DHT22;27089;50.022;7.604;2023-03-31T14:41:02;13.70;99.90
41344;DHT22;27089;50.022;7.604;2023-03-31T14:43:31;13.80;99.90
41344;DHT22;27089;50.022;7.604;2023-03-31T14:46:00;13.90;99.90
41344;DHT22;27089;50.022;7.604;2023-03-31T14:48:28;13.90;99.90
41344;DHT22;27089;50.022;7.604;2023-03-31T14:50:59;13.90;99.90
41344;DHT22;27089;50.022;7.604;2023-03-31T14:53:26;13.90;99.90
41344;DHT22;27089;50.022;7.604;2023-03-31T14:56:00;13.80;99.90
41344;DHT22;27089;50.022;7.604;2023-03-31T14:58:30;13.70;99.90
41344;DHT22;27089;50.022;7.604;2023-03-31T15:01:00;13.70;99.90
41344;DHT22;27089;50.022;7.604;2023-03-31T15:03:29;13.60;99.90
41344;DHT22;27089;50.022;7.604;2023-03-31T15:05:58;13.60;99.90
41344;DHT22;27089;50.022;7.604;2023-03-31T15:08:27;13.50;99.90
41344;DHT22;27089;50.022;7.604;2023-03-31T15:10:58;13.30;99.90
41344;DHT22;27089;50.022;7.604;2023-03-31T15:13:31;13.20;99.90
41344;DHT22;27089;50.022;7.604;2023-03-31T15:15:59;13.10;99.90
41344;DHT22;27089;50.022;7.604;2023-03-31T15:18:26;13.20;99.90
41344;DHT22;27089;50.022;7.604;2023-03-31T15:20:53;13.20;99.90
41344;DHT22;27089;50.022;7.604;2023-03-31T15:23:21;13.20;99.90
41344;DHT22;27089;50.022;7.604;2023-03-31T15:25:54;13.10;99.90
41344;DHT22;27089;50.022;7.604;2023-03-31T15:28:25;13.10;99.90
41344;DHT22;27089;50.022;7.604;2023-03-31T15:30:55;12.90;99.90
41344;DHT22;27089;50.022;7.604;2023-03-31T15:33:27;12.70;99.90
41344;DHT22;27089;50.022;7.604;2023-03-31T15:35:56;12.50;99.90
41344;DHT22;27089;50.022;7.604;2023-03-31T15:38:24;12.30;99.90
41344;DHT22;27089;50.022;7.604;2023-03-31T15:40:54;12.30;99.90
41344;DHT22;27089;50.022;7.604;2023-03-31T15:43:29;12.30;99.90
41344;DHT22;27089;50.022;7.604;2023-03-31T15:45:56;12.40;99.90
41344;DHT22;27089;50.022;7.604;2023-03-31T15:48:28;12.50;99.90
41344;DHT22;27089;50.022;7.604;2023-03-31T15:51:02;12.60;99.90
41344;DHT22;27089;50.022;7.604;2023-03-31T15:53:35;12.60;99.90
41344;DHT22;27089;50.022;7.604;2023-03-31T15:56:03;12.60;99.90
41344;DHT22;27089;50.022;7.604;2023-03-31T15:59:03;12.70;99.90
41344;DHT22;27089;50.022;7.604;2023-03-31T16:01:32;12.70;99.90
41344;DHT22;27089;50.022;7.604;2023-03-31T16:04:00;12.60;99.90
41344;DHT22;27089;50.022;7.604;2023-03-31T16:06:41;12.60;99.90
41344;DHT22;27089;50.022;7.604;2023-03-31T16:09:12;12.60;99.90
41344;DHT22;27089;50.022;7.604;2023-03-31T16:11:44;12.50;99.90
41344;DHT22;27089;50.022;7.604;2023-03-31T16:14:17;12.50;99.90
41344;DHT22;27089;50.022;7.604;2023-03-31T16:16:48;12.50;99.90
41344;DHT22;27089;50.022;7.604;2023-03-31T16:19:16;12.40;99.90
41344;DHT22;27089;50.022;7.604;2023-03-31T16:21:46;12.40;99.90
41344;DHT22;27089;50.022;7.604;2023-03-31T16:24:17;12.30;99.90
41344;DHT22;27089;50.022;7.604;2023-03-31T16:26:45;12.30;99.90